Tiempo atmosférico en la estación meteorológica de Ólvega, Soria (1039 m.)



Fecha
DESCASC
Temp. máxima en grados centígrados (hora)
DESCASC
Temp. mínima en grados centígrados (hora)
DESCASC
Temp. media en grados centígrados
DESCASC
Racha de viento máxima en m/sg (hora)
DESCASC
Velocidad máxima media en intervalos de 10 minutos(hora)
DESCASC
Precipitaciones diarias en mm
DESCASC
Precipitaciones de 00:00 a 06:00 en mm
DESCASC
Precipitaciones de 06:00 a 12:00 en mm
DESCASC
Precipitaciones de 12:00 a 18:00 en mm
DESCASC
Precipitaciones de 18:00 a 24:00 en mm
DESCASC
08-12-2019 12.5 (11:30) 1.2 (00:10) 6.9 10.83 (14:40) 5.56 (13:50) 3.8 0 0 3.2 0.6
07-12-2019 16.6 (14:40) 1 (02:10) 8.8 4.72 (19:40) 2.78 (19:40) 0 0 0 0 0
06-12-2019 13.5 (14:00) -0.2 (03:00) 6.6 7.22 (15:40) 4.44 (11:20) 0 0 0 0 0
05-12-2019 7.7 (14:30) 0.8 (00:00) 4.2 8.89 (10:40) 6.39 (10:40) 0.6 0.4 0 0 0.2
04-12-2019 7.5 (13:10) -0.3 (00:00) 3.6 12.22 (22:10) 8.89 (21:50) 0 0 0 0 0
03-12-2019 -- (--) -- (--) -- -- (--) -- (--) 0 0 0 0 0
02-12-2019 5 (14:10) -0.1 (00:00) 2.4 9.44 (18:10) 6.39 (18:10) 0 0 0 0 0
01-12-2019 11.6 (13:10) 1.6 (00:00) 6.6 6.39 (00:10) 3.89 (16:10) 0.2 0 0 0.2 0
30-11-2019 12 (13:00) 4.6 (00:00) 8.3 17.5 (16:10) 8.61 (08:20) 5.2 0 0 1 4.2
29-11-2019 14.8 (15:30) 7.4 (00:00) 11.1 15.28 (00:10) 8.89 (00:40) 0.4 0.4 0 0 0
28-11-2019 10.9 (13:50) 6.9 (09:10) 8.9 17.22 (23:30) 8.61 (02:50) 1 0 0.6 0.2 0.2
27-11-2019 10.3 (00:20) 6.3 (00:00) 8.3 17.22 (05:00) 10 (05:00) 1.2 1.2 0 0 0
26-11-2019 12.2 (12:30) 7.4 (00:00) 9.8 22.22 (20:40) 11.94 (20:50) 1.4 0 0 0 1.4
25-11-2019 13.3 (12:10) 5 (01:20) 9.2 12.78 (08:00) 7.5 (07:40) 0.4 0.4 0 0 0
24-11-2019 8.7 (13:40) 0.2 (00:00) 4.4 11.67 (20:10) 6.94 (01:20) 0 0 0 0 0
23-11-2019 8.8 (15:40) 2.8 (00:00) 5.8 17.78 (09:00) 10 (02:30) 2.4 1.8 0.6 0 0
22-11-2019 9.9 (19:20) 3.8 (00:00) 6.8 21.11 (14:10) 10.83 (14:10) 9.4 0 1.2 4 4.2
21-11-2019 6.8 (15:30) 2.4 (00:00) 4.6 11.67 (03:40) 6.39 (02:50) 3.4 0.2 0 1.2 2
20-11-2019 8.2 (14:30) 1 (02:40) 4.6 10.83 (18:10) 5.83 (17:40) 1.8 0 0 0 1.8
19-11-2019 9.6 (14:40) -2.9 (-00:0) 3.4 7.5 (23:40) 4.44 (13:40) 0 0 0 0 0
18-11-2019 4.8 (16:00) 1.3 (00:00) 3.1 10.83 (11:40) 6.39 (21:10) 0.2 0 0.2 0 0
17-11-2019 6.5 (13:40) 0.4 (00:00) 3.5 15.28 (11:10) 8.33 (10:20) 0.6 0 0 0.6 0
16-11-2019 5.6 (11:10) -4.3 (-00:0) 0.6 11.67 (16:40) 6.39 (16:10) 0 0 0 0 0
15-11-2019 4.6 (12:30) -0.4 (00:00) 2.1 13.33 (10:50) 7.5 (11:00) 0.8 0 0 0.6 0.2
14-11-2019 7.3 (01:10) 0 (00:00) 3.7 20.56 (02:10) 11.94 (02:10) 7.2 0.6 6.2 0.2 0.2
13-11-2019 10.5 (14:40) 4.6 (00:00) 7.5 19.72 (23:59) 11.94 (23:59) 9.2 8 1.2 0 0
12-11-2019 9.6 (12:30) 1 (00:00) 5.3 12.78 (21:50) 7.5 (21:50) 1.2 0 0 0 1.2
11-11-2019 7.1 (15:10) -0.5 (04:10) 3.3 14.17 (17:10) 9.17 (17:10) 2.2 0 0.6 1.6 0
10-11-2019 4.7 (15:00) -0.5 (-00:0) 2.1 10.28 (14:40) 6.67 (15:20) 1.8 0 0.8 1 0

Gráficas

Temp. máximas Temp. mínimas Temp. medias Precipitaciones Rachas de viento máximas Velocidades máximas media en intervalos de 10 minutos

Datos horarios

Fecha y hora oficial Temperatura (ºC) Velocidad del viento (km/h) Dirección del viento Racha (km/h) Dirección de racha Precipitación (mm) Presión (hPa) Tendencia (hPa) Humedad (%)
2019-12-09 23:00:00 4.1 4 Norte 13 Norte 0 -- -- 76
2019-12-09 22:00:00 4.3 5 Oeste 14 Norte 0 -- -- 75
2019-12-09 21:00:00 4.5 13 Noroeste 36 Norte 0 -- -- 75
2019-12-09 20:00:00 5.5 23 Norte 39 Norte 0 -- -- 73
2019-12-09 19:00:00 5.7 13 Norte 28 Noroeste 0 -- -- 73
2019-12-09 18:00:00 6.6 18 Noroeste 30 Noroeste 0 -- -- 67
2019-12-09 17:00:00 6.8 13 Noroeste 46 Noroeste 0 -- -- 66
2019-12-09 16:00:00 7.9 25 Noroeste 46 Norte 0 -- -- 61
2019-12-09 15:00:00 8.2 29 Noroeste 50 Noroeste 0 -- -- 61
2019-12-09 14:00:00 8.6 28 Noroeste 47 Noroeste 0 -- -- 59
2019-12-09 13:00:00 7.8 26 Noroeste 39 Noroeste 0 -- -- 63
2019-12-09 12:00:00 7.5 20 Noroeste 33 Noroeste 0 -- -- 64
2019-12-09 11:00:00 7.4 18 Noroeste 32 Noroeste 0 -- -- 63
2019-12-09 10:00:00 4 9 Sudeste 16 Sudoeste 0 -- -- 81
2019-12-09 09:00:00 1.7 0 Calma 31 Sudeste 0 -- -- 87
2019-12-09 08:00:00 2.6 7 Oeste 34 Sudoeste 0 -- -- 82
2019-12-09 07:00:00 2 9 Oeste 20 Sudoeste 0 -- -- 87
2019-12-09 06:00:00 0.2 7 Sudeste 15 Este 0 -- -- 92
2019-12-09 05:00:00 1.8 7 Sudeste 22 Sudoeste 0 -- -- 89
2019-12-09 04:00:00 0.1 5 Nordeste 12 Sudeste 0 -- -- 93
2019-12-09 03:00:00 0.7 5 Sudeste 13 Este 0 -- -- 92
2019-12-09 02:00:00 0.5 10 Sudeste 14 Sudeste 0 -- -- 93
2019-12-09 01:00:00 0.8 6 Sudeste 11 Sudeste 0 -- -- 93
2019-12-09 00:00:00 2.3 10 Sudeste 15 Sudeste 0 -- -- 95
2019-12-08 23:00:00 3.5 4 Sudeste 12 Sur 0 -- -- 96
2019-12-08 22:00:00 5.5 4 Sudoeste 9 Noroeste 0 -- -- 96
2019-12-08 21:00:00 6.3 3 Sudeste 5 Sudeste 0 -- -- 96
2019-12-08 20:00:00 6.9 0 Calma 6 Este 0 -- -- 96
2019-12-08 19:00:00 7.1 3 Sudeste 9 Este 0.6 -- -- 95
2019-12-08 18:00:00 7.4 0 Calma 16 Sudoeste 1.6 -- -- 93
2019-12-08 17:00:00 7.7 9 Sudoeste 21 Sudoeste 1 -- -- 90
2019-12-08 16:00:00 8.5 8 Sur 21 Sudoeste 0.6 -- -- 88
2019-12-08 15:00:00 9.3 12 Sudoeste 39 Sudoeste 0 -- -- 81
2019-12-08 14:00:00 9.8 15 Sudoeste 33 Sudoeste 0 -- -- 76
2019-12-08 13:00:00 9.9 16 Sudoeste 33 Sudoeste 0 -- -- 74
2019-12-08 12:00:00 11.5 19 Sudoeste 34 Sudoeste 0 -- -- 65
2019-12-08 11:00:00 11.3 5 Oeste 26 Sudoeste 0 -- -- 64
2019-12-08 10:00:00 9.4 4 Este 17 Sudoeste 0 -- -- 71
2019-12-08 09:00:00 5.9 6 Sur 20 Sudeste 0 -- -- 75
2019-12-08 08:00:00 5.4 4 Sudeste 13 Sudoeste 0 -- -- 72
2019-12-08 07:00:00 5.8 8 Oeste 22 Sudoeste 0 -- -- 76
2019-12-08 06:00:00 5 8 Sudoeste 20 Oeste 0 -- -- 80
2019-12-08 05:00:00 2.2 7 Sudeste 14 Sudeste 0 -- -- 90
2019-12-08 04:00:00 1.9 7 Sudeste 14 Sudeste 0 -- -- 89
2019-12-08 03:00:00 2.7 8 Sudeste 21 Sur 0 -- -- 87
2019-12-08 02:00:00 1.8 10 Sudeste 15 Sudeste 0 -- -- 92
2019-12-08 01:00:00 1.8 2 Sudeste 13 Sudeste 0 -- -- 93
2019-12-08 00:00:00 1.3 4 Sudeste 7 Sudeste 0 -- -- 94
2019-12-07 23:00:00 2.2 6 Sudeste 9 Sudeste 0 -- -- 92
2019-12-07 22:00:00 2.9 6 Sudeste 12 Sudeste 0 -- -- 91
2019-12-07 21:00:00 3.5 8 Sur 13 Sudeste 0 -- -- 87
2019-12-07 20:00:00 3.4 8 Sudeste 17 Sudeste 0 -- -- 85
2019-12-07 19:00:00 5.8 6 Sudeste 9 Sur 0 -- -- 78
2019-12-07 18:00:00 5.8 5 Sudeste 8 Sudeste 0 -- -- 81
2019-12-07 17:00:00 11.1 4 Sur 9 Sudoeste 0 -- -- 63
2019-12-07 16:00:00 13.5 7 Norte 10 Norte 0 -- -- 54
2019-12-07 15:00:00 14.9 7 Noroeste 10 Oeste 0 -- -- 49
2019-12-07 14:00:00 14.7 3 Norte 13 Noroeste 0 -- -- 47
2019-12-07 13:00:00 13.3 6 Noroeste 10 Noroeste 0 -- -- 53
2019-12-07 12:00:00 15.4 3 Noroeste 6 Noroeste 0 -- -- 44
2019-12-07 11:00:00 11.2 5 Sudeste 12 Sudeste 0 -- -- 61
2019-12-07 10:00:00 8.7 4 Sudeste 14 Sur 0 -- -- 71
2019-12-07 09:00:00 1.6 7 Sudeste 11 Sudeste 0 -- -- 94
2019-12-07 08:00:00 1.2 5 Sur 13 Sudeste 0 -- -- 92
2019-12-07 07:00:00 1.5 6 Sudeste 12 Sudeste 0 -- -- 94
2019-12-07 06:00:00 1.2 7 Sudeste 14 Sudeste 0 -- -- 94
2019-12-07 05:00:00 1.9 8 Sudeste 13 Sudeste 0 -- -- 93
2019-12-07 04:00:00 1.3 0 Calma 12 Sudeste 0 -- -- 95
2019-12-07 03:00:00 1.5 5 Sudeste 13 Sudeste 0 -- -- 94
2019-12-07 02:00:00 1.6 6 Sur 12 Sudeste 0 -- -- 93
2019-12-07 01:00:00 2.5 5 Sudeste 13 Sur 0 -- -- 90
2019-12-07 00:00:00 3.3 8 Sudeste 16 Sur 0 -- -- 86
2019-12-06 23:00:00 2.6 12 Sudeste 14 Sudeste 0 -- -- 88
2019-12-06 22:00:00 3 6 Sudeste 17 Sudeste 0 -- -- 87
2019-12-06 21:00:00 4.4 12 Sudeste 16 Sudeste 0 -- -- 86
2019-12-06 20:00:00 3.8 3 Sudeste 8 Sudoeste 0 -- -- 89
2019-12-06 19:00:00 4.8 5 Sudeste 13 Este 0 -- -- 85
2019-12-06 18:00:00 5.9 3 Nordeste 16 Sudoeste 0 -- -- 83
2019-12-06 17:00:00 9.7 8 Sudoeste 17 Sudoeste 0 -- -- 69
2019-12-06 16:00:00 11.4 10 Sudoeste 26 Sudoeste 0 -- -- 65
2019-12-06 15:00:00 11.8 12 Sudoeste 19 Sudoeste 0 -- -- 64
2019-12-06 14:00:00 13.5 6 Oeste 12 Oeste 0 -- -- 57
2019-12-06 13:00:00 12.4 4 Sudoeste 23 Sudeste 0 -- -- 64
2019-12-06 12:00:00 10 13 Sudeste 25 Sur 0 -- -- 72
2019-12-06 11:00:00 7.6 11 Sur 16 Sur 0 -- -- 80
2019-12-06 10:00:00 8.6 5 Sur 21 Sudeste 0 -- -- 75
2019-12-06 09:00:00 4.5 10 Sudeste 16 Sudeste 0 -- -- 89
2019-12-06 08:00:00 3.6 10 Sudeste 15 Sudeste 0 -- -- 95
2019-12-06 07:00:00 1.1 3 Sudoeste 6 Sudeste 0 -- -- 97
2019-12-06 06:00:00 0.7 2 Sudeste 8 Este 0 -- -- 96
2019-12-06 05:00:00 0.1 3 Sudeste 10 Sur 0 -- -- 96
2019-12-06 04:00:00 -0.1 2 Este 12 Este 0 -- -- 94
2019-12-06 03:00:00 -0.2 3 Norte 9 Sudeste 0 -- -- 94
2019-12-06 02:00:00 0.4 3 Sudeste 15 Sudeste 0 -- -- 94
2019-12-06 01:00:00 0.5 5 Sudeste 9 Este 0 -- -- 94
2019-12-06 00:00:00 0.8 4 Sudeste 9 Sudoeste 0 -- -- 90
2019-12-05 23:00:00 2 3 Sur 14 Noroeste 0 -- -- 86
2019-12-05 22:00:00 3.1 4 Sur 10 Sudoeste 0 -- -- 85
2019-12-05 21:00:00 2.9 2 Sudeste 8 Sudeste 0 -- -- 88
2019-12-05 20:00:00 3.3 2 Sudoeste 8 Norte 0 -- -- 89
2019-12-05 19:00:00 2.7 3 Sur 5 Sudeste 0.2 -- -- 90
2019-12-05 18:00:00 4.5 5 Sudeste 10 Norte 0 -- -- 85
2019-12-05 17:00:00 6.4 8 Norte 21 Norte 0 -- -- 77
2019-12-05 16:00:00 6.7 12 Norte 20 Nordeste 0 -- -- 79
2019-12-05 15:00:00 7 13 Norte 19 Nordeste 0 -- -- 81
2019-12-05 14:00:00 6.4 8 Nordeste 15 Nordeste 0 -- -- 82
2019-12-05 13:00:00 6 8 Oeste 16 Noroeste 0 -- -- 86
2019-12-05 12:00:00 5 4 Noroeste 26 Nordeste 0 -- -- 90
2019-12-05 11:00:00 4.5 18 Nordeste 32 Nordeste 0 -- -- 94
2019-12-05 10:00:00 3.4 21 Nordeste 30 Nordeste 0 -- -- 96
2019-12-05 09:00:00 3.2 17 Nordeste 24 Nordeste 0 -- -- 96
2019-12-05 08:00:00 3 19 Nordeste 27 Nordeste 0 -- -- 95
2019-12-05 07:00:00 3 19 Nordeste 26 Nordeste 0 -- -- 94
2019-12-05 06:00:00 3.2 18 Nordeste 26 Nordeste 0 -- -- 92
2019-12-05 05:00:00 3.3 14 Nordeste 22 Nordeste 0 -- -- 92
2019-12-05 04:00:00 3.5 13 Nordeste 22 Nordeste 0.2 -- -- 93
2019-12-05 03:00:00 3.5 8 Este 14 Nordeste 0 -- -- 94
2019-12-05 02:00:00 3.4 8 Nordeste 18 Nordeste 0.2 -- -- 92
2019-12-05 01:00:00 3.8 12 Nordeste 26 Norte 0 -- -- 88
2019-12-05 00:00:00 3.4 20 Nordeste 35 Nordeste 0 -- -- 88
2019-12-04 23:00:00 3.3 23 Norte 44 Nordeste 0 -- -- 87
2019-12-04 22:00:00 3.5 30 Nordeste 42 Norte 0 -- -- 89
2019-12-04 21:00:00 4.6 18 Norte 31 Norte 0 -- -- 84
2019-12-04 20:00:00 5.6 9 Norte 19 Nordeste 0 -- -- 82
2019-12-04 19:00:00 6.3 6 Norte 14 Norte 0 -- -- 82
2019-12-04 18:00:00 6 4 Oeste 13 Nordeste 0 -- -- 82
2019-12-04 17:00:00 6.4 8 Nordeste 37 Nordeste 0 -- -- 79
2019-12-04 16:00:00 6.9 19 Nordeste 27 Nordeste 0 -- -- 78
2019-12-04 15:00:00 6.8 13 Nordeste 25 Nordeste 0 -- -- 81
2019-12-04 14:00:00 6.2 15 Nordeste 25 Nordeste 0 -- -- 83
2019-12-04 13:00:00 7 12 Nordeste 26 Este 0 -- -- 78
2019-12-04 12:00:00 6.4 4 Oeste 9 Oeste 0 -- -- 81
2019-12-04 11:00:00 4.7 3 Nordeste 8 Sudoeste 0 -- -- 87
2019-12-04 10:00:00 4 3 Norte 7 Nordeste 0 -- -- 91
2019-12-04 09:00:00 2.9 4 Nordeste 8 Sudoeste 0 -- -- 93
2019-12-04 08:00:00 2.2 4 Sudeste 8 Sudeste 0 -- -- 94
2019-12-04 07:00:00 2.2 3 Norte 12 Sudeste 0 -- -- 94
2019-12-04 06:00:00 1.2 4 Este 10 Nordeste 0 -- -- 95
2019-12-04 05:00:00 0.3 3 Sur 9 Este 0 -- -- 93
2019-12-04 04:00:00 1.4 3 Sudoeste 6 Este 0 -- -- 92
2019-12-04 03:00:00 2 3 Noroeste 9 Sudoeste 0 -- -- 91
2019-12-04 02:00:00 0.7 3 Sur 12 Noroeste 0 -- -- 94
2019-12-04 01:00:00 0.2 4 Sudoeste 9 Noroeste 0 -- -- 95
2019-12-04 00:00:00 -0.3 3 Sudoeste 7 Noroeste 0 -- -- 95
2019-12-03 23:00:00 -1.1 2 Nordeste 8 Este 0 -- -- 95
2019-12-03 22:00:00 -0.5 3 Sur 6 Sur 0 -- -- 94
2019-12-03 21:00:00 0.2 3 Nordeste 5 Norte 0 -- -- 92
2019-12-03 20:00:00 -0.2 3 Nordeste 6 Nordeste 0 -- -- 92
2019-12-03 19:00:00 0.8 4 Noroeste 8 Noroeste 0 -- -- 91
2019-12-03 18:00:00 1.4 6 Norte 12 Norte 0 -- -- 88
2019-12-03 17:00:00 2 9 Norte 14 Norte 0 -- -- 84
2019-12-03 16:00:00 2.3 9 Nordeste -- -- -- -- -- 83
2019-12-03 15:00:00 2.1 9 Norte 23 Nordeste 0 -- -- 85
2019-12-03 14:00:00 2.1 13 Norte 24 Norte 0 -- -- 82
2019-12-03 13:00:00 2.1 12 Norte 20 Nordeste 0 -- -- 78
2019-12-03 12:00:00 1.8 10 Norte 17 Norte 0 -- -- 78
2019-12-03 11:00:00 2.5 9 Norte -- -- 0 -- -- 77
2019-12-03 10:00:00 -- -- -- -- -- 0 -- -- --
2019-12-03 09:00:00 -- -- -- -- -- 0 -- -- --
2019-12-03 08:00:00 -- 6 Norte 20 Norte 0 -- -- --
2019-12-03 07:00:00 0.5 8 Norte 21 Noroeste 0 -- -- 84
2019-12-03 06:00:00 0.6 8 Norte 18 Norte 0 -- -- 83
2019-12-03 05:00:00 0.6 8 Norte 21 Norte 0 -- -- 83
2019-12-03 04:00:00 0.6 6 Norte 21 Norte 0 -- -- 85
2019-12-03 03:00:00 0.6 12 Norte 24 Noroeste 0 -- -- 84
2019-12-03 02:00:00 0.5 9 Norte 23 Nordeste 0 -- -- 85
2019-12-03 01:00:00 0.2 11 Nordeste 26 Nordeste 0 -- -- 85
2019-12-03 00:00:00 0 15 Nordeste 26 Nordeste 0 -- -- 85
2019-12-02 23:00:00 0.4 10 Nordeste 21 Norte 0 -- -- 86
2019-12-02 22:00:00 1.4 8 Norte 21 Nordeste 0 -- -- 87
2019-12-02 21:00:00 1.8 14 Norte 27 Nordeste 0 -- -- 89
2019-12-02 20:00:00 2.5 14 Norte 28 Nordeste 0 -- -- 88
2019-12-02 19:00:00 3 15 Norte 34 Norte 0 -- -- 87
2019-12-02 18:00:00 3.5 22 Norte 32 Norte 0 -- -- 86
2019-12-02 17:00:00 4.2 13 Norte 27 Norte 0 -- -- 83
2019-12-02 16:00:00 4.6 17 Norte 28 Norte 0 -- -- 83
2019-12-02 15:00:00 4.5 13 Norte 26 Norte 0 -- -- 83
2019-12-02 14:00:00 4.6 17 Norte 30 Norte 0 -- -- 83
2019-12-02 13:00:00 4.7 14 Norte 32 Norte 0 -- -- 82
2019-12-02 12:00:00 4.7 19 Norte 31 Norte 0 -- -- 82
2019-12-02 11:00:00 4.3 14 Norte 27 Norte 0 -- -- 85
2019-12-02 10:00:00 3.7 15 Norte 26 Norte 0 -- -- 88
2019-12-02 09:00:00 3.2 7 Nordeste 14 Nordeste 0 -- -- 89
2019-12-02 08:00:00 3.4 3 Norte 11 Norte 0 -- -- 89
2019-12-02 07:00:00 3.6 8 Norte 16 Norte 0 -- -- 89
2019-12-02 06:00:00 3.5 6 Norte 20 Nordeste 0 -- -- 90
2019-12-02 05:00:00 3.6 14 Norte 21 Norte 0 -- -- 89
2019-12-02 04:00:00 3.8 13 Norte 19 Norte 0 -- -- 89
2019-12-02 03:00:00 4 9 Norte 21 Norte 0 -- -- 88
2019-12-02 02:00:00 4 12 Norte 21 Norte 0 -- -- 89
2019-12-02 01:00:00 3.9 13 Norte 21 Norte 0 -- -- 92
2019-12-02 00:00:00 4.2 13 Norte 20 Norte 0 -- -- 92
2019-12-01 23:00:00 4.1 6 Norte 12 Norte 0 -- -- 92
2019-12-01 22:00:00 3.6 2 Noroeste 5 Noroeste 0 -- -- 90
2019-12-01 21:00:00 2.6 0 Calma 5 Norte 0 -- -- 96
2019-12-01 20:00:00 2 4 Sur 5 Sudeste 0 -- -- 95
2019-12-01 19:00:00 3.4 0 Calma 5 Norte 0 -- -- 94
2019-12-01 18:00:00 5.1 4 Norte 11 Noroeste 0 -- -- 94
2019-12-01 17:00:00 5.6 7 Noroeste 18 Norte 0.2 -- -- 92
2019-12-01 16:00:00 6 12 Norte 18 Norte 0 -- -- 88
2019-12-01 15:00:00 10.8 6 Oeste 13 Sudoeste 0 -- -- 54
2019-12-01 14:00:00 10.7 6 Sudoeste 16 Sudoeste 0 -- -- 56
2019-12-01 13:00:00 11.3 4 Sudoeste 11 Oeste 0 -- -- 54
2019-12-01 12:00:00 10.8 0 Calma 9 Sudoeste 0 -- -- 56
2019-12-01 11:00:00 9.7 3 Sur 10 Sudeste 0 -- -- 64
2019-12-01 10:00:00 6.7 3 Sur 15 Sur 0 -- -- 76
2019-12-01 09:00:00 3.6 10 Sur 20 Sudoeste 0 -- -- 90
2019-12-01 08:00:00 3.8 10 Sur 18 Sur 0 -- -- 88
2019-12-01 07:00:00 3.3 5 Sudoeste 18 Sudoeste 0 -- -- 90
2019-12-01 06:00:00 3 6 Sur 18 Sur 0 -- -- 89
2019-12-01 05:00:00 2.6 3 Sudeste 16 Sudeste 0 -- -- 87
2019-12-01 04:00:00 3.6 3 Este 15 Sudeste 0 -- -- 88
2019-12-01 03:00:00 3 0 Calma 11 Sudeste 0 -- -- 90
2019-12-01 02:00:00 4 6 Sur 18 Sudeste 0 -- -- 86
2019-12-01 01:00:00 3.8 7 Sudoeste 23 Sur 0 -- -- 88
2019-12-01 00:00:00 4.7 11 Sur 24 Sur 0.4 -- -- 85
2019-11-30 23:00:00 4.9 11 Sudoeste 31 Sur 0.6 -- -- 86
2019-11-30 22:00:00 5.9 14 Sur 29 Sur 0 -- -- 85
2019-11-30 21:00:00 6.6 20 Sudoeste 35 Oeste 0.8 -- -- 80
2019-11-30 20:00:00 7.7 4 Noroeste 27 Oeste 0.4 -- -- 90
2019-11-30 19:00:00 8.4 13 Oeste 40 Sudoeste 2 -- -- 89
2019-11-30 18:00:00 9.8 21 Sudoeste 49 Sudoeste 0.4 -- -- 87
2019-11-30 17:00:00 10 23 Sur 63 Sudoeste 0.6 -- -- 87
2019-11-30 16:00:00 10.7 22 Sur 46 Sur 0 -- -- 82
2019-11-30 15:00:00 11 20 Sur 52 Sur 0 -- -- 83
2019-11-30 14:00:00 11.5 24 Sur 47 Sur 0 -- -- 82
2019-11-30 13:00:00 12 26 Sur 48 Sur 0 -- -- 80
2019-11-30 12:00:00 11.5 22 Sur 43 Sur 0 -- -- 84
2019-11-30 11:00:00 11.1 21 Sur 37 Sur 0 -- -- 83
2019-11-30 10:00:00 10.8 19 Sur 36 Sudoeste 0 -- -- 86
2019-11-30 09:00:00 10.1 25 Sur 48 Sur 0 -- -- 88
2019-11-30 08:00:00 9.7 26 Sur 41 Sur 0 -- -- 90
2019-11-30 07:00:00 9.3 18 Sur 38 Sur 0 -- -- 92
2019-11-30 06:00:00 9.1 11 Sur 41 Sur 0 -- -- 92
2019-11-30 05:00:00 9 15 Sur 31 Sudoeste 0 -- -- 92
2019-11-30 04:00:00 9.1 9 Sudeste 22 Sur 0 -- -- 90
2019-11-30 03:00:00 9.1 12 Sudeste 22 Sudeste 0 -- -- 91
2019-11-30 02:00:00 9.2 12 Sur 23 Sudoeste 0 -- -- 89
2019-11-30 01:00:00 9.3 8 Sur 27 Sudeste 0 -- -- 88
2019-11-30 00:00:00 9.6 8 Sur 19 Sudeste 0 -- -- 86
2019-11-29 23:00:00 9 8 Sur 20 Sur 0 -- -- 85
2019-11-29 22:00:00 8.5 8 Sur 16 Sur 0 -- -- 86
2019-11-29 21:00:00 7.6 9 Sudeste 13 Este 0 -- -- 84
2019-11-29 20:00:00 8.8 5 Sudeste 13 Sudeste 0 -- -- 79
2019-11-29 19:00:00 7.9 5 Sudeste 11 Este 0 -- -- 83
2019-11-29 18:00:00 9.6 5 Sur 14 Sudoeste 0 -- -- 76
2019-11-29 17:00:00 11.9 10 Sudoeste 19 Sudoeste 0 -- -- 68
2019-11-29 16:00:00 12.5 9 Sudoeste 18 Oeste 0 -- -- 68
2019-11-29 15:00:00 13.1 4 Noroeste 18 Norte 0 -- -- 68
2019-11-29 14:00:00 13.6 8 Norte 13 Norte 0 -- -- 70
2019-11-29 13:00:00 13.3 6 Norte 11 Noroeste 0 -- -- 74
2019-11-29 12:00:00 12.4 2 Nordeste 14 Norte 0 -- -- 75
2019-11-29 11:00:00 12.1 8 Norte 17 Oeste 0 -- -- 74
2019-11-29 10:00:00 12.3 4 Oeste 13 Oeste 0 -- -- 74
2019-11-29 09:00:00 7.9 4 Norte 13 Oeste 0 -- -- 90
2019-11-29 08:00:00 9.3 4 Oeste 23 Oeste 0 -- -- 80
2019-11-29 07:00:00 8.9 5 Sur 25 Sudoeste 0 -- -- 88
2019-11-29 06:00:00 9.2 12 Sudoeste 27 Oeste 0 -- -- 88
2019-11-29 05:00:00 9 17 Sudoeste 37 Sudoeste 0 -- -- 89
2019-11-29 04:00:00 9 24 Sudoeste 45 Sudoeste 0 -- -- 90
2019-11-29 03:00:00 8.9 24 Sudoeste 46 Sudoeste 0 -- -- 92
2019-11-29 02:00:00 8.5 26 Sudoeste 48 Sudoeste 0.2 -- -- 93
2019-11-29 01:00:00 8.3 29 Sudoeste 55 Sudoeste 0.2 -- -- 92
2019-11-29 00:00:00 8.4 31 Sudoeste 62 Sudoeste 0 -- -- 89
2019-11-28 23:00:00 8.3 25 Sudoeste 48 Sur 0.2 -- -- 91
2019-11-28 22:00:00 8 23 Sudoeste 41 Sur 0 -- -- 91
2019-11-28 21:00:00 7.7 21 Sur 39 Sur 0 -- -- 91
2019-11-28 20:00:00 8.1 22 Sur 48 Sur 0 -- -- 88
2019-11-28 19:00:00 8 28 Sur 55 Sur 0 -- -- 86
2019-11-28 18:00:00 8.5 30 Sur 54 Sur 0 -- -- 84
2019-11-28 17:00:00 8.8 28 Sur 47 Sur 0 -- -- 84
2019-11-28 16:00:00 8.2 19 Sudoeste 40 Sudoeste 0.2 -- -- 90
2019-11-28 15:00:00 9.5 23 Sur 40 Sudoeste 0 -- -- 82
2019-11-28 14:00:00 10.7 24 Sudoeste 42 Sudoeste 0 -- -- 79
2019-11-28 13:00:00 10.5 18 Sudoeste 46 Sudoeste 0 -- -- 80
2019-11-28 12:00:00 10 26 Sudoeste 49 Sudoeste 0 -- -- 83
2019-11-28 11:00:00 7.8 15 Sudoeste 35 Sudoeste 0.4 -- -- 92
2019-11-28 10:00:00 7.2 14 Sur 43 Sur 0.2 -- -- 92
2019-11-28 09:00:00 7.2 21 Sudoeste 45 Sudoeste 0 -- -- 91
2019-11-28 08:00:00 7.5 19 Sudoeste 40 Sudoeste 0 -- -- 88
2019-11-28 07:00:00 7.3 23 Sudoeste 51 Sudoeste 0 -- -- 88
2019-11-28 06:00:00 7.5 22 Sudoeste 55 Sudoeste 0 -- -- 86
2019-11-28 05:00:00 7.6 28 Sudoeste 58 Sudoeste 0 -- -- 87
2019-11-28 04:00:00 7.4 26 Sudoeste 52 Sudoeste 0 -- -- 88
2019-11-28 03:00:00 7.4 28 Sudoeste 56 Sudoeste 0 -- -- 87
2019-11-28 02:00:00 7.6 23 Sudoeste 50 Sudoeste 0 -- -- 85
2019-11-28 01:00:00 7.7 23 Sudoeste 45 Sudoeste 0 -- -- 85
2019-11-28 00:00:00 7.4 19 Sudoeste 52 Sudoeste 0 -- -- 85
2019-11-27 23:00:00 7.5 23 Sudoeste 48 Sudoeste 0 -- -- 81
2019-11-27 22:00:00 7.7 22 Sudoeste 44 Sudoeste 0 -- -- 79
2019-11-27 21:00:00 8.1 17 Sudoeste 43 Sudoeste 0 -- -- 78
2019-11-27 20:00:00 8.1 21 Sudoeste 44 Sudoeste 0 -- -- 79
2019-11-27 19:00:00 8.3 21 Sudoeste 36 Sudoeste 0 -- -- 78
2019-11-27 18:00:00 8.7 17 Sudoeste 33 Sudoeste 0 -- -- 72
2019-11-27 17:00:00 9 16 Sudoeste 33 Sudoeste 0 -- -- 69
2019-11-27 16:00:00 8.9 19 Sudoeste 40 Sudoeste 0 -- -- 73
2019-11-27 15:00:00 9.7 24 Sudoeste 44 Sudoeste 0 -- -- 71
2019-11-27 14:00:00 9.9 13 Sudoeste 39 Sur 0 -- -- 71
2019-11-27 06:00:00 -- -- -- -- -- -- -- -- --
2019-11-27 05:00:00 6.9 36 Sudoeste 62 Sudoeste 0 -- -- 81
2019-11-27 04:00:00 7.4 24 Sudoeste 57 Oeste 0 -- -- 82
2019-11-27 03:00:00 8.3 32 Sudoeste 58 Sudoeste 0 -- -- 84
2019-11-27 02:00:00 8.6 30 Sudoeste 58 Sudoeste 0.8 -- -- 89
2019-11-27 01:00:00 9.6 20 Sudoeste 46 Sudoeste 0.4 -- -- 89
2019-11-27 00:00:00 10.2 19 Sudoeste 51 Sudoeste 0.2 -- -- 91
2019-11-26 23:00:00 10.4 27 Sur 66 Sudoeste 1 -- -- 91
2019-11-26 22:00:00 10.4 27 Sudoeste 75 Sur 0.2 -- -- 91
2019-11-26 21:00:00 10.9 37 Sur 80 Sur 0 -- -- 85
2019-11-26 20:00:00 10.9 32 Sur 78 Sudoeste 0 -- -- 84
2019-11-26 19:00:00 10.9 37 Sur 73 Sur 0 -- -- 84
2019-11-26 18:00:00 10.9 36 Sur 68 Sur 0 -- -- 82
2019-11-26 17:00:00 10.8 36 Sur 68 Sur 0 -- -- 82
2019-11-26 16:00:00 11 34 Sur 52 Sur 0 -- -- 82
2019-11-26 15:00:00 11.2 29 Sur 48 Sur 0 -- -- 81
2019-11-26 14:00:00 10.7 19 Sur 40 Sudeste 0 -- -- 84
2019-11-26 13:00:00 11.4 16 Sur 45 Sur 0 -- -- 83
2019-11-26 12:00:00 10.3 25 Sur 53 Sudoeste 0 -- -- 87
2019-11-26 11:00:00 8.4 11 Sudeste 44 Sudeste 0 -- -- 89
2019-11-26 10:00:00 8 18 Sur 32 Sudoeste 0 -- -- 88
2019-11-26 09:00:00 7.7 7 Sudeste 28 Sur 0 -- -- 88
2019-11-26 08:00:00 7.8 18 Sudeste 30 Este 0 -- -- 88
2019-11-26 07:00:00 8.3 8 Sudeste 41 Sudoeste 0 -- -- 83
2019-11-26 06:00:00 8.6 13 Sur 25 Sur 0 -- -- 84
2019-11-26 05:00:00 8.8 13 Sudeste 30 Sudeste 0 -- -- 82
2019-11-26 04:00:00 8.6 13 Sudeste 36 Sudeste 0 -- -- 82
2019-11-26 03:00:00 8.5 10 Sur 27 Sur 0 -- -- 80
2019-11-26 02:00:00 8.4 14 Sur 26 Sudoeste 0 -- -- 83
2019-11-26 01:00:00 8.3 12 Sur 29 Sur 0 -- -- 82
2019-11-26 00:00:00 8.5 12 Sudoeste 33 Sudoeste 0 -- -- 79
2019-11-25 23:00:00 8.6 17 Sudoeste 41 Sudoeste 0 -- -- 78
2019-11-25 22:00:00 8.5 17 Sudoeste 31 Oeste 0 -- -- 80
2019-11-25 21:00:00 8.6 13 Sudoeste 26 Sudoeste 0 -- -- 79
2019-11-25 20:00:00 8.7 5 Sudoeste 25 Sudoeste 0 -- -- 78
2019-11-25 19:00:00 9.2 14 Sudoeste 26 Sudoeste 0 -- -- 80
2019-11-25 18:00:00 10 8 Sur 22 Sudoeste 0 -- -- 80
2019-11-25 17:00:00 10.4 9 Sudoeste 33 Sudoeste 0 -- -- 74
2019-11-25 16:00:00 11.8 21 Sudoeste 40 Oeste 0 -- -- 64
2019-11-25 15:00:00 11.4 15 Oeste 36 Sudoeste 0 -- -- 70
2019-11-25 14:00:00 12.5 22 Sudoeste 40 Sudoeste 0 -- -- 70
2019-11-25 13:00:00 11.8 21 Sudoeste 37 Oeste 0 -- -- 75
2019-11-25 12:00:00 13.1 15 Oeste 35 Oeste 0 -- -- 68
2019-11-25 11:00:00 11.8 14 Sudoeste 32 Sudoeste 0 -- -- 75
2019-11-25 10:00:00 11.2 14 Sudoeste 35 Sudoeste 0 -- -- 77
2019-11-25 09:00:00 8.5 21 Sudoeste 39 Sudoeste 0 -- -- 87
2019-11-25 08:00:00 7.9 25 Sudoeste 46 Sudoeste 0 -- -- 91
2019-11-25 07:00:00 7.3 22 Sudoeste 41 Sudoeste 0 -- -- 91
2019-11-25 06:00:00 6.7 15 Sudoeste 30 Sudoeste 0.2 -- -- 91
2019-11-25 05:00:00 6.2 14 Sur 30 Sudoeste 0 -- -- 92
2019-11-25 04:00:00 5.4 13 Sudeste 30 Sur 0 -- -- 93
2019-11-25 03:00:00 5.2 14 Sudeste 40 Sur 0.2 -- -- 91
2019-11-25 02:00:00 5.2 14 Sur 39 Sur 0 -- -- 91
2019-11-25 01:00:00 5.3 6 Este 21 Sur 0 -- -- 91
2019-11-25 00:00:00 5.6 4 Este 24 Sudoeste 0 -- -- 89
2019-11-24 23:00:00 5.3 9 Sudoeste 29 Sudeste 0 -- -- 88
2019-11-24 22:00:00 5.6 6 Este 30 Sudoeste 0 -- -- 82
2019-11-24 21:00:00 5.5 11 Sur 42 Sudoeste 0 -- -- 80
2019-11-24 20:00:00 5.4 12 Sudoeste 30 Sudoeste 0 -- -- 77
2019-11-24 19:00:00 5.4 6 Sur 27 Sudoeste 0 -- -- 72
2019-11-24 18:00:00 5 9 Sudoeste 34 Sudoeste 0 -- -- 75
2019-11-24 17:00:00 5.1 17 Sudoeste 39 Sudoeste 0 -- -- 74
2019-11-24 16:00:00 5.5 16 Sudoeste 40 Oeste 0 -- -- 74
2019-11-24 15:00:00 7.1 15 Oeste 36 Sudoeste 0 -- -- 67
2019-11-24 14:00:00 8 18 Oeste 35 Oeste 0 -- -- 67
2019-11-24 13:00:00 7.9 13 Sudoeste 30 Sudoeste 0 -- -- 70
2019-11-24 12:00:00 5.7 14 Sudoeste 29 Sudoeste 0 -- -- 76
2019-11-24 11:00:00 4.6 12 Oeste 29 Sudoeste 0 -- -- 80
2019-11-24 10:00:00 3.2 14 Sudoeste 37 Sudoeste 0 -- -- 83
2019-11-24 09:00:00 2.7 6 Oeste 13 Oeste 0 -- -- 83
2019-11-24 08:00:00 0.2 4 Sur 14 Este 0 -- -- 90
2019-11-24 07:00:00 1.9 3 Sur 26 Sudoeste 0 -- -- 84
2019-11-24 06:00:00 2.4 15 Sudoeste 31 Sudoeste 0 -- -- 84
2019-11-24 05:00:00 2.6 17 Sudoeste 33 Sudoeste 0 -- -- 84
2019-11-24 04:00:00 2.9 16 Oeste 33 Oeste 0 -- -- 83
2019-11-24 03:00:00 3.1 19 Oeste 33 Sudoeste 0 -- -- 82
2019-11-24 02:00:00 3.6 15 Oeste 39 Sudoeste 0 -- -- 79
2019-11-24 01:00:00 4.1 19 Oeste 31 Sudoeste 0 -- -- 79
2019-11-24 00:00:00 4.6 16 Sudoeste 35 Oeste 0 -- -- 77
2019-11-23 23:00:00 5 22 Sudoeste 38 Sudoeste 0 -- -- 76
2019-11-23 22:00:00 4.6 9 Oeste 23 Oeste 0 -- -- 77
2019-11-23 21:00:00 5.2 15 Sudoeste 28 Oeste 0 -- -- 75
2019-11-23 20:00:00 4.9 12 Oeste 24 Sudoeste 0 -- -- 75
2019-11-23 19:00:00 5.2 8 Oeste 29 Oeste 0 -- -- 72
2019-11-23 18:00:00 5.6 8 Oeste 26 Oeste 0 -- -- 69
2019-11-23 17:00:00 8.1 17 Noroeste 41 Noroeste 0 -- -- 56
2019-11-23 16:00:00 7.9 20 Noroeste 36 Sudoeste 0 -- -- 55
2019-11-23 15:00:00 8.5 23 Oeste 48 Oeste 0 -- -- 59
2019-11-23 14:00:00 8.4 26 Oeste 43 Oeste 0 -- -- 61
2019-11-23 13:00:00 5.4 22 Oeste 39 Oeste 0 -- -- 73
2019-11-23 12:00:00 4.4 22 Oeste 41 Oeste 0 -- -- 78
2019-11-23 11:00:00 3.9 24 Oeste 50 Sudoeste 0 -- -- 81
2019-11-23 10:00:00 3.6 30 Sudoeste 57 Oeste 0 -- -- 83
2019-11-23 09:00:00 3.7 32 Oeste 64 Oeste 0 -- -- 84
2019-11-23 08:00:00 3.8 32 Sudoeste 54 Sudoeste 0 -- -- 85
2019-11-23 07:00:00 3.2 24 Sudoeste 49 Sudoeste 0.6 -- -- 88
2019-11-23 06:00:00 3.2 23 Sudoeste 46 Sudoeste 0.2 -- -- 88
2019-11-23 05:00:00 4.1 12 Sudoeste 54 Sudoeste 0 -- -- 88
2019-11-23 04:00:00 4.3 24 Sudoeste 46 Sudoeste 1.2 -- -- 89
2019-11-23 03:00:00 5.5 30 Sudoeste 62 Sudoeste 0 -- -- 82
2019-11-23 02:00:00 5.7 27 Sudoeste 63 Sudoeste 0.2 -- -- 86
2019-11-23 01:00:00 5.9 28 Sudoeste 49 Sudoeste 0.2 -- -- 87
2019-11-23 00:00:00 6.3 24 Sudoeste 49 Sudoeste 0 -- -- 81
2019-11-22 23:00:00 6.3 31 Sudoeste 60 Sudoeste 0 -- -- 84
2019-11-22 22:00:00 6.6 25 Sudoeste 43 Sudoeste 0 -- -- 85
2019-11-22 21:00:00 6.9 22 Sudoeste 45 Sudoeste 3.8 -- -- 89
2019-11-22 20:00:00 7.3 23 Sudoeste 53 Sudoeste 0.2 -- -- 84
2019-11-22 19:00:00 9.7 26 Sur 51 Sur 0.2 -- -- 84
2019-11-22 18:00:00 9.3 14 Sur 65 Sudoeste 0 -- -- 84
2019-11-22 17:00:00 8.5 30 Sudeste 49 Sur 0.8 -- -- 89
2019-11-22 16:00:00 8.1 23 Sur 53 Sudeste 1.8 -- -- 88
2019-11-22 15:00:00 7.7 28 Sur 76 Sudeste 1.2 -- -- 89
2019-11-22 14:00:00 7.5 38 Sudeste 71 Sudeste 0 -- -- 88
2019-11-22 13:00:00 7 38 Sudeste 65 Sudeste 0.2 -- -- 88
2019-11-22 12:00:00 6.3 32 Sudeste 62 Sudeste 0.6 -- -- 89
2019-11-22 11:00:00 5.9 35 Sudeste 55 Sur 0.4 -- -- 90
2019-11-22 10:00:00 5.5 30 Sudeste 64 Sur 0.2 -- -- 91
2019-11-22 09:00:00 5 34 Sudeste 62 Sudeste 0 -- -- 90
2019-11-22 08:00:00 5.3 28 Sudeste 48 Sudeste 0 -- -- 87
2019-11-22 07:00:00 5 30 Sudeste 56 Sudeste 0 -- -- 87
2019-11-22 06:00:00 4.8 27 Sudeste 44 Sudeste 0 -- -- 87
2019-11-22 05:00:00 5 19 Sur 47 Sur 0 -- -- 83
2019-11-22 04:00:00 4.6 31 Sur 46 Sur 0 -- -- 87
2019-11-22 03:00:00 4.6 19 Sur 30 Sudeste 0 -- -- 88
2019-11-22 02:00:00 4.6 14 Sur 28 Sudeste 0 -- -- 88
2019-11-22 01:00:00 4.6 20 Sur 36 Sur 0 -- -- 86
2019-11-22 00:00:00 4.1 13 Sur 25 Sur 0.2 -- -- 86
2019-11-21 23:00:00 4.1 13 Sur 26 Sudeste 0 -- -- 88
2019-11-21 22:00:00 4 12 Sur 21 Sur 0 -- -- 90
2019-11-21 21:00:00 3.8 6 Sur 21 Sur 0 -- -- 88
2019-11-21 20:00:00 3.4 0 Calma 18 Sudoeste 1.8 -- -- 90
2019-11-21 19:00:00 4.9 12 Sur 22 Sur 0 -- -- 87
2019-11-21 18:00:00 4.6 13 Sur 25 Sur 0 -- -- 88
2019-11-21 17:00:00 5 14 Sur 30 Sudoeste 0.6 -- -- 88
2019-11-21 16:00:00 6 14 Sur 28 Sudoeste 0 -- -- 84
2019-11-21 15:00:00 6.7 15 Sudoeste 28 Sudoeste 0.2 -- -- 81
2019-11-21 14:00:00 5.4 12 Sudoeste 31 Sudoeste 0 -- -- 89
2019-11-21 13:00:00 4.9 18 Sudoeste 36 Sudoeste 0.4 -- -- 87
2019-11-21 12:00:00 5.1 11 Sur 27 Sur 0 -- -- 84
2019-11-21 11:00:00 4.3 14 Sudeste 32 Sur 0 -- -- 87
2019-11-21 10:00:00 3.2 19 Sur 35 Sur 0 -- -- 89
2019-11-21 09:00:00 2.7 17 Sudeste 32 Sudeste 0 -- -- 90
2019-11-21 08:00:00 -- -- -- -- -- -- -- -- --
2019-11-21 07:00:00 -- -- -- -- -- -- -- -- --
2019-11-21 06:00:00 -- -- -- -- -- -- -- -- --
2019-11-21 05:00:00 -- -- -- -- -- -- -- -- --
2019-11-21 04:00:00 -- -- -- -- -- -- -- -- --
2019-11-21 03:00:00 -- -- -- -- -- -- -- -- --
2019-11-21 02:00:00 -- -- -- -- -- -- -- -- --
2019-11-21 01:00:00 -- -- -- -- -- -- -- -- --
2019-11-21 00:00:00 -- -- -- -- -- -- -- -- --
2019-11-20 23:00:00 -- -- -- -- -- -- -- -- --
2019-11-20 22:00:00 -- -- -- -- -- -- -- -- --
2019-11-20 21:00:00 -- -- -- -- -- -- -- -- --
2019-11-20 20:00:00 -- -- -- -- -- -- -- -- --
2019-11-20 19:00:00 4.5 14 Sur 39 Sudoeste 0 -- -- 80
2019-11-20 18:00:00 5.3 18 Sur 38 Sur 0 -- -- 77
2019-11-20 17:00:00 6.1 15 Sudeste 26 Sudeste 0 -- -- 74
2019-11-20 16:00:00 6.6 15 Sudeste 29 Sudeste 0 -- -- 71
2019-11-20 15:00:00 6.8 16 Sur 30 Sudeste 0 -- -- 69
2019-11-20 14:00:00 6.9 5 Sudeste 27 Sudoeste 0 -- -- 71
2019-11-20 13:00:00 5.2 9 Sudeste 25 Sudeste 0 -- -- 75
2019-11-20 12:00:00 5.1 9 Este 26 Este 0 -- -- 76
2019-11-20 11:00:00 5.6 13 Este 24 Este 0 -- -- 75
2019-11-20 10:00:00 3.7 13 Este 24 Este 0 -- -- 79
2019-11-20 09:00:00 2.3 10 Sudeste 24 Sudeste 0 -- -- 82
2019-11-20 08:00:00 1.8 11 Sudeste 23 Sudeste 0 -- -- 84
2019-11-20 07:00:00 1.7 14 Sudeste 23 Este 0 -- -- 85
2019-11-20 06:00:00 1.3 12 Sudeste 26 Sudeste 0 -- -- 86
2019-11-20 05:00:00 1.6 15 Sudeste 24 Sudeste 0 -- -- 87
2019-11-20 04:00:00 2.2 14 Sudeste 21 Sudeste 0 -- -- 82
2019-11-20 03:00:00 1.9 7 Sur 14 Sudeste 0 -- -- 80
2019-11-20 02:00:00 1.9 10 Sudeste 19 Sudeste 0 -- -- 81
2019-11-20 01:00:00 2.4 6 Sudeste 17 Sudeste 0 -- -- 75
2019-11-20 00:00:00 3.5 8 Sur 27 Sudoeste 0 -- -- 69
2019-11-19 23:00:00 3 8 Sudeste 22 Sudeste 0 -- -- 71
2019-11-19 22:00:00 2.4 9 Sudeste 17 Este 0 -- -- 79
2019-11-19 21:00:00 2 6 Sudeste 15 Sur 0 -- -- 80
2019-11-19 20:00:00 2.5 3 Sudeste 12 Sudeste 0 -- -- 82
2019-11-19 19:00:00 3.1 2 Oeste 10 Sur 0 -- -- 79
2019-11-19 18:00:00 4.2 5 Sur 17 Sudoeste 0 -- -- 73
2019-11-19 17:00:00 6.3 10 Sur 21 Sudoeste 0 -- -- 66
2019-11-19 16:00:00 7.9 11 Sudoeste 23 Sudoeste 0 -- -- 63
2019-11-19 15:00:00 9.1 8 Sudoeste 20 Sudoeste 0 -- -- 55
2019-11-19 14:00:00 8 10 Sudoeste 26 Sur 0 -- -- 57
2019-11-19 13:00:00 7.7 13 Sudoeste 22 Sudoeste 0 -- -- 57
2019-11-19 12:00:00 9 3 Oeste 11 Sudoeste 0 -- -- 52
2019-11-19 11:00:00 7.2 6 Oeste 10 Oeste 0 -- -- 58
2019-11-19 10:00:00 5.7 3 Sudeste 8 Sudeste 0 -- -- 67
2019-11-19 09:00:00 -1.3 7 Sudeste 11 Sudeste 0 -- -- 92
2019-11-19 08:00:00 -2.9 5 Sudeste 9 Sudeste 0 -- -- 94
2019-11-19 07:00:00 -2.4 4 Sudeste 7 Sudeste 0 -- -- 93
2019-11-19 06:00:00 -1.8 5 Sur 9 Sudoeste 0 -- -- 92
2019-11-19 05:00:00 -1.3 3 Sudoeste 9 Sudoeste 0 -- -- 91
2019-11-19 04:00:00 -0.2 4 Oeste 8 Oeste 0 -- -- 91
2019-11-19 03:00:00 0 6 Noroeste 10 Norte 0 -- -- 89
2019-11-19 02:00:00 0.2 2 Norte 15 Noroeste 0 -- -- 87
2019-11-19 01:00:00 1 10 Norte 18 Norte 0 -- -- 86
2019-11-19 00:00:00 1.6 9 Norte 22 Norte 0 -- -- 85
2019-11-18 23:00:00 2 17 Norte 36 Nordeste 0 -- -- 83
2019-11-18 22:00:00 1.6 22 Norte 37 Norte 0 -- -- 88
2019-11-18 21:00:00 1.8 20 Norte 28 Norte 0 -- -- 84
2019-11-18 20:00:00 1.5 14 Norte 31 Norte 0 -- -- 87
2019-11-18 19:00:00 1.3 12 Norte 30 Norte 0 -- -- 88
2019-11-18 18:00:00 1.9 18 Norte 33 Norte 0 -- -- 87
2019-11-18 17:00:00 2.3 13 Norte 27 Norte 0 -- -- 91
2019-11-18 16:00:00 4.8 17 Norte 29 Noroeste 0 -- -- 74
2019-11-18 15:00:00 3.6 17 Norte 37 Noroeste 0 -- -- 79
2019-11-18 14:00:00 3.5 17 Norte 33 Norte 0 -- -- 83
2019-11-18 13:00:00 3.4 19 Norte 37 Noroeste 0 -- -- 76
2019-11-18 12:00:00 3.6 20 Norte 39 Norte 0 -- -- 74
2019-11-18 11:00:00 3.3 21 Norte 37 Norte 0.2 -- -- 75
2019-11-18 10:00:00 2.8 17 Norte 31 Noroeste 0 -- -- 80
2019-11-18 09:00:00 2.1 10 Norte 18 Nordeste 0 -- -- 81
2019-11-18 08:00:00 2 6 Noroeste 18 Noroeste 0 -- -- 86
2019-11-18 07:00:00 2 4 Norte 17 Oeste 0 -- -- 86
2019-11-18 06:00:00 2 6 Noroeste 10 Noroeste 0 -- -- 87
2019-11-18 05:00:00 2.1 9 Norte 39 Norte 0 -- -- 90
2019-11-18 04:00:00 2.9 12 Noroeste 24 Noroeste 0 -- -- 87
2019-11-18 03:00:00 2.9 13 Noroeste 23 Noroeste 0 -- -- 87
2019-11-18 02:00:00 2.1 6 Noroeste 15 Oeste 0 -- -- 94
2019-11-18 01:00:00 1.9 2 Sudoeste 8 Nordeste 0 -- -- 94
2019-11-18 00:00:00 1.5 6 Este 13 Sur 0 -- -- 94
2019-11-17 23:00:00 1.3 5 Nordeste 16 Este 0 -- -- 91
2019-11-17 22:00:00 2 9 Este 13 Sudeste 0 -- -- 92
2019-11-17 21:00:00 3.4 5 Sudeste 6 Noroeste 0 -- -- 91
2019-11-17 20:00:00 4.4 5 Oeste 26 Sudoeste 0 -- -- 88
2019-11-17 19:00:00 4.6 12 Sudoeste 24 Oeste 0 -- -- 89
2019-11-17 18:00:00 4.1 8 Oeste 27 Sudoeste 0 -- -- 90
2019-11-17 17:00:00 4.3 17 Sudoeste 43 Sudoeste 0 -- -- 90
2019-11-17 16:00:00 5 26 Sudoeste 50 Sudoeste 0.2 -- -- 89
2019-11-17 15:00:00 4 12 Nordeste 30 Sudeste 0.4 -- -- 89
2019-11-17 14:00:00 4.2 16 Sur 44 Sudoeste 0 -- -- 88
2019-11-17 13:00:00 4.5 27 Sudoeste 43 Sudoeste 0 -- -- 88
2019-11-17 12:00:00 4.2 21 Sudoeste 55 Sudoeste 0 -- -- 85
2019-11-17 11:00:00 3.1 28 Sudoeste 51 Sudoeste 0 -- -- 87
2019-11-17 10:00:00 2.3 27 Sudoeste 49 Sudoeste 0 -- -- 89
2019-11-17 09:00:00 1.4 10 Este 36 Sudoeste 0 -- -- 91
2019-11-17 08:00:00 1.3 15 Sudoeste 32 Sudoeste 0 -- -- 89
2019-11-17 07:00:00 1.2 15 Sudoeste 50 Sudoeste 0 -- -- 86
2019-11-17 06:00:00 1.5 24 Sudoeste 47 Oeste 0 -- -- 81
2019-11-17 05:00:00 1.1 17 Sudoeste 40 Oeste 0 -- -- 83
2019-11-17 04:00:00 1 19 Oeste 36 Sudoeste 0 -- -- 82
2019-11-17 03:00:00 0.6 25 Sudoeste 42 Sudoeste 0 -- -- 79
2019-11-17 02:00:00 1.5 17 Oeste 32 Sudoeste 0 -- -- 72
2019-11-17 01:00:00 0.7 13 Oeste 26 Sudoeste 0 -- -- 82
2019-11-17 00:00:00 1.6 15 Oeste 31 Oeste 0 -- -- 75
2019-11-16 23:00:00 1.8 15 Sudoeste 32 Oeste 0 -- -- 77
2019-11-16 22:00:00 2.2 14 Oeste 29 Oeste 0 -- -- 80
2019-11-16 21:00:00 2.9 15 Oeste 32 Sudoeste 0 -- -- 79
2019-11-16 20:00:00 2.7 17 Sudoeste 31 Sudoeste 0 -- -- 82
2019-11-16 19:00:00 2.5 17 Sudoeste 37 Sudoeste 0 -- -- 83
2019-11-16 18:00:00 2.3 19 Sudoeste 37 Oeste 0 -- -- 82
2019-11-16 17:00:00 2.9 20 Sudoeste 42 Oeste 0 -- -- 77
2019-11-16 16:00:00 5 21 Sudoeste 35 Sudoeste 0 -- -- 68
2019-11-16 15:00:00 2.2 16 Sudoeste 29 Sudoeste 0 -- -- 81
2019-11-16 14:00:00 2 14 Sudoeste 31 Sudoeste 0 -- -- 83
2019-11-16 13:00:00 2.7 9 Sudoeste 31 Sudoeste 0 -- -- 79
2019-11-16 12:00:00 2.6 9 Sur 23 Sur 0 -- -- 78
2019-11-16 11:00:00 5.2 3 Sur 12 Sudoeste 0 -- -- 63
2019-11-16 10:00:00 1.2 0 Calma 5 Sudeste 0 -- -- 82
2019-11-16 09:00:00 -1.6 5 Sudeste 9 Sudeste 0 -- -- 91
2019-11-16 08:00:00 -3.5 0 Calma 8 Sudeste 0 -- -- 93
2019-11-16 07:00:00 -4.3 4 Sudeste 7 Sudeste 0 -- -- 94
2019-11-16 06:00:00 -3.9 6 Sudeste 7 Sudeste 0 -- -- 94
2019-11-16 05:00:00 -3.2 0 Calma 5 Sudeste 0 -- -- 94
2019-11-16 04:00:00 -2.1 0 Calma 8 Noroeste 0 -- -- 94
2019-11-16 03:00:00 -1.2 5 Noroeste 7 Noroeste 0 -- -- 95
2019-11-16 02:00:00 -1.3 2 Sur 8 Sudeste 0 -- -- 95
2019-11-16 01:00:00 -1.3 5 Sudeste 7 Sudeste 0 -- -- 94
2019-11-16 00:00:00 -0.2 0 Calma 4 Norte 0 -- -- 92
2019-11-15 23:00:00 1.1 0 Calma 6 Noroeste 0 -- -- 92
2019-11-15 22:00:00 0.9 3 Norte 6 Noroeste 0 -- -- 94
2019-11-15 21:00:00 1.3 3 Nordeste 10 Este 0 -- -- 93
2019-11-15 20:00:00 1.7 4 Sudeste 10 Este 0.2 -- -- 90
2019-11-15 19:00:00 2.2 4 Oeste 11 Sudoeste 0 -- -- 83
2019-11-15 18:00:00 2.6 7 Oeste 13 Sudoeste 0 -- -- 84
2019-11-15 17:00:00 2.7 8 Oeste 18 Oeste 0 -- -- 85
2019-11-15 16:00:00 3 9 Oeste 31 Oeste 0 -- -- 86
2019-11-15 15:00:00 3.5 16 Oeste 34 Oeste 0.2 -- -- 83
2019-11-15 14:00:00 2.5 12 Oeste 40 Oeste 0.4 -- -- 87
2019-11-15 13:00:00 4.6 22 Sudoeste 44 Oeste 0 -- -- 81
2019-11-15 12:00:00 3.8 26 Sudoeste 44 Sudoeste 0 -- -- 78
2019-11-15 11:00:00 3.1 27 Sudoeste 48 Sudoeste 0 -- -- 81
2019-11-15 10:00:00 1.6 15 Sudoeste 36 Sudoeste 0 -- -- 87
2019-11-15 09:00:00 0.9 12 Oeste 47 Sudoeste 0 -- -- 86
2019-11-15 08:00:00 0.6 18 Sudoeste 41 Sudoeste 0 -- -- 87
2019-11-15 07:00:00 0.5 10 Oeste 31 Sudoeste 0 -- -- 85
2019-11-15 06:00:00 0 15 Sudoeste 35 Sudoeste 0 -- -- 84
2019-11-15 05:00:00 -0.3 14 Sudoeste 33 Sudoeste 0 -- -- 85
2019-11-15 04:00:00 -0.3 12 Sudoeste 25 Sudoeste 0 -- -- 90
2019-11-15 03:00:00 0.5 7 Oeste 17 Sudoeste 0 -- -- 90
2019-11-15 02:00:00 0.7 6 Oeste 26 Sudoeste 0 -- -- 89
2019-11-15 01:00:00 0.8 12 Sudoeste 24 Sudoeste 0 -- -- 90
2019-11-15 00:00:00 0.7 7 Oeste 11 Oeste 0 -- -- 92
2019-11-14 23:00:00 0.3 6 Este 18 Noroeste 0 -- -- 94
2019-11-14 22:00:00 0.9 2 Este 8 Oeste 0 -- -- 91
2019-11-14 21:00:00 0.8 3 Oeste 18 Sudoeste 0.2 -- -- 91
2019-11-14 20:00:00 1 6 Sur 24 Sudoeste 0 -- -- 91
2019-11-14 19:00:00 1 13 Sudoeste 28 Sudoeste 0 -- -- 89
2019-11-14 18:00:00 2.1 14 Oeste 29 Oeste 0 -- -- 79
2019-11-14 17:00:00 2.3 8 Sur 28 Sudoeste 0.2 -- -- 79
2019-11-14 16:00:00 4 15 Sudoeste 33 Oeste 0 -- -- 65
2019-11-14 15:00:00 4.9 10 Oeste 32 Sudoeste 0 -- -- 64
2019-11-14 14:00:00 3.4 17 Oeste 36 Oeste 0 -- -- 68
2019-11-14 13:00:00 4.8 17 Sudoeste 36 Oeste 0 -- -- 69
2019-11-14 12:00:00 3.5 10 Sudoeste 18 Sudoeste 0 -- -- 80
2019-11-14 11:00:00 2.2 2 Sudeste 14 Sudeste 0 -- -- 89
2019-11-14 10:00:00 0.9 5 Sudoeste 10 Sudeste 0.4 -- -- 94
2019-11-14 09:00:00 0.3 3 Sur 6 Sur 1.2 -- -- 95
2019-11-14 08:00:00 0 3 Noroeste 15 Norte 1 -- -- 94
2019-11-14 07:00:00 1.1 13 Noroeste 43 Sudoeste 3.6 -- -- 92
2019-11-14 06:00:00 4.8 26 Sudoeste 47 Sudoeste 0.6 -- -- 87
2019-11-14 05:00:00 5.7 26 Sudoeste 59 Sudoeste 0 -- -- 79
2019-11-14 04:00:00 5.9 26 Sudoeste 55 Sudoeste 0 -- -- 78
2019-11-14 03:00:00 6 31 Sudoeste 74 Sudoeste 0 -- -- 77
2019-11-14 02:00:00 6.5 38 Sudoeste 73 Sudoeste 0 -- -- 72
2019-11-14 01:00:00 7.2 32 Sudoeste 62 Sudoeste 0 -- -- 77
2019-11-14 00:00:00 7.1 43 Sudoeste 71 Sudoeste 0 -- -- 78
2019-11-13 23:00:00 7.1 34 Sudoeste 64 Sudoeste 0 -- -- 82
2019-11-13 22:00:00 7.9 32 Sudoeste 58 Sudoeste 0 -- -- 74
2019-11-13 21:00:00 7.4 21 Sur 42 Sudoeste 0 -- -- 78
2019-11-13 20:00:00 7.2 11 Sur 36 Sur 0 -- -- 76
2019-11-13 19:00:00 7.5 7 Sudoeste 25 Sudoeste 0 -- -- 70
2019-11-13 18:00:00 5.5 6 Sudeste 14 Noroeste 0 -- -- 81
2019-11-13 17:00:00 8.8 8 Noroeste 21 Noroeste 0 -- -- 62
2019-11-13 16:00:00 8.9 9 Norte 27 Noroeste 0 -- -- 60
2019-11-13 15:00:00 10.3 19 Noroeste 30 Noroeste 0 -- -- 56
2019-11-13 14:00:00 9.4 17 Norte 41 Noroeste 0 -- -- 61
2019-11-13 13:00:00 8.6 30 Noroeste 44 Noroeste 0 -- -- 60
2019-11-13 12:00:00 7.8 17 Noroeste 28 Noroeste 0 -- -- 77
2019-11-13 11:00:00 6.4 15 Norte 35 Norte 0 -- -- 85
2019-11-13 10:00:00 5.7 18 Noroeste 31 Noroeste 0 -- -- 89
2019-11-13 09:00:00 5 18 Norte 31 Norte 0 -- -- 90
2019-11-13 08:00:00 4.7 15 Norte 34 Noroeste 0.2 -- -- 94
2019-11-13 07:00:00 4.8 10 Norte 21 Norte 1 -- -- 96
2019-11-13 06:00:00 6.1 4 Norte 8 Sudoeste 1.6 -- -- 95
2019-11-13 05:00:00 6 3 Sudoeste 10 Sudeste 2.2 -- -- 95
2019-11-13 04:00:00 5.7 9 Este 21 Este 1.4 -- -- 94
2019-11-13 03:00:00 5.8 4 Sudeste 18 Este 1.6 -- -- 92
2019-11-13 02:00:00 5.2 8 Sur 24 Sudeste 1.2 -- -- 93
2019-11-13 01:00:00 4.9 15 Sudeste 36 Sur 0 -- -- 92
2019-11-13 00:00:00 4.8 12 Sur 35 Sudoeste 0 -- -- 92
2019-11-12 23:00:00 4.6 20 Sudoeste 41 Sudoeste 0.4 -- -- 91
2019-11-12 22:00:00 4.2 19 Sudoeste 46 Sudoeste 0.8 -- -- 89
2019-11-12 21:00:00 4.5 18 Sudoeste 39 Sudoeste 0 -- -- 86
2019-11-12 20:00:00 5.6 18 Sudoeste 34 Sudoeste 0 -- -- 79
2019-11-12 19:00:00 5.6 16 Sudoeste 34 Sudoeste 0 -- -- 79
2019-11-12 18:00:00 5.5 19 Sudoeste 37 Sudoeste 0 -- -- 78
2019-11-12 17:00:00 6.6 13 Oeste 30 Sudoeste 0 -- -- 73
2019-11-12 16:00:00 9.1 16 Sudoeste 30 Sudoeste 0 -- -- 65
2019-11-12 15:00:00 8.4 7 Oeste 24 Sudoeste 0 -- -- 63
2019-11-12 14:00:00 7.7 11 Sudoeste 27 Noroeste 0 -- -- 70
2019-11-12 13:00:00 7.8 13 Noroeste 23 Noroeste 0 -- -- 63
2019-11-12 12:00:00 7.3 8 Oeste 21 Sudoeste 0 -- -- 69
2019-11-12 11:00:00 6.2 8 Oeste 14 Noroeste 0 -- -- 71
2019-11-12 10:00:00 4.7 3 Sudeste 9 Este 0 -- -- 79
2019-11-12 09:00:00 4.1 4 Norte 23 Noroeste 0 -- -- 79
2019-11-12 08:00:00 3.6 8 Noroeste 12 Noroeste 0 -- -- 82
2019-11-12 07:00:00 3.2 3 Norte 6 Norte 0 -- -- 85
2019-11-12 06:00:00 2.2 0 Calma 8 Noroeste 0 -- -- 88
2019-11-12 05:00:00 1.7 3 Norte 7 Oeste 0 -- -- 87
2019-11-12 04:00:00 1.9 3 Oeste 8 Noroeste 0 -- -- 86
2019-11-12 03:00:00 2.1 5 Noroeste 10 Noroeste 0 -- -- 85
2019-11-12 02:00:00 1.8 9 Noroeste 21 Norte 0 -- -- 84
2019-11-12 01:00:00 1.2 6 Norte 18 Norte 0 -- -- 88
2019-11-12 00:00:00 2.4 10 Norte 27 Norte 0 -- -- 90
2019-11-11 23:00:00 3.5 11 Noroeste 20 Noroeste 0 -- -- 82
2019-11-11 22:00:00 3.4 10 Noroeste 28 Noroeste 0 -- -- 82
2019-11-11 21:00:00 3.2 7 Noroeste 30 Noroeste 0 -- -- 87
2019-11-11 20:00:00 4.1 14 Noroeste 22 Noroeste 0 -- -- 81
2019-11-11 19:00:00 4.3 13 Noroeste 34 Norte 0 -- -- 79
2019-11-11 18:00:00 4.2 17 Noroeste 51 Norte 0 -- -- 84
2019-11-11 17:00:00 5.5 22 Norte 49 Noroeste 0.2 -- -- 79
2019-11-11 16:00:00 6.3 30 Norte 47 Norte 0 -- -- 84
2019-11-11 15:00:00 6.9 10 Noroeste 27 Sudoeste 0 -- -- 87
2019-11-11 14:00:00 6.6 10 Noroeste 27 Sudoeste 0 -- -- 87
2019-11-11 13:00:00 4.2 5 Sudoeste 14 Este 1.4 -- -- 92
2019-11-11 12:00:00 4 4 Sudeste 21 Sudoeste 0.6 -- -- 90
2019-11-11 11:00:00 3.7 15 Sudoeste 35 Sudoeste 0 -- -- 90
2019-11-11 10:00:00 3.8 7 Sur 22 Oeste 0 -- -- 84
2019-11-11 09:00:00 2.9 9 Sudoeste 22 Sudoeste 0 -- -- 89
2019-11-11 08:00:00 1.5 4 Sudeste 6 Este 0 -- -- 90
2019-11-11 07:00:00 1.2 2 Sudeste 6 Sudeste 0 -- -- 91
2019-11-11 06:00:00 0.5 3 Sudeste 6 Oeste 0 -- -- 93
2019-11-11 05:00:00 0.4 4 Este 8 Sudeste 0 -- -- 93
2019-11-11 04:00:00 -0.4 3 Sur 11 Sudeste 0 -- -- 92
2019-11-11 03:00:00 0.9 5 Noroeste 13 Oeste 0 -- -- 89
2019-11-11 02:00:00 -0.2 4 Noroeste 9 Sudoeste 0 -- -- 89
2019-11-11 01:00:00 0.6 5 Oeste 19 Noroeste 0 -- -- 87
2019-11-11 00:00:00 -0.2 4 Sudeste 7 Sudeste 0 -- -- 92
2019-11-10 23:00:00 0.8 6 Noroeste 16 Noroeste 0 -- -- 88
2019-11-10 22:00:00 0.6 5 Norte 13 Este 0 -- -- 91
2019-11-10 21:00:00 0.3 3 Nordeste 20 Noroeste 0 -- -- 88
2019-11-10 20:00:00 1.2 13 Noroeste 21 Noroeste 0 -- -- 86
2019-11-10 19:00:00 1 7 Norte 18 Norte 0 -- -- 90
2019-11-10 18:00:00 1.2 5 Noroeste 16 Norte 0.2 -- -- 93
2019-11-10 17:00:00 1.7 10 Norte 25 Norte 0.2 -- -- 91
2019-11-10 16:00:00 2.3 21 Noroeste 37 Noroeste 0.2 -- -- 85
2019-11-10 15:00:00 4.7 15 Noroeste 37 Oeste 0 -- -- 75
2019-11-10 14:00:00 3.3 14 Oeste 24 Sudoeste 0.2 -- -- 84
2019-11-10 13:00:00 2.3 12 Oeste 27 Oeste 0.2 -- -- 89
2019-11-10 12:00:00 3 10 Oeste 29 Oeste 0 -- -- 86
2019-11-10 11:00:00 1.4 4 Noroeste 29 Oeste 0.8 -- -- 91
2019-11-10 10:00:00 1.5 14 Sudoeste 27 Sudoeste 0 -- -- 85
2019-11-10 09:00:00 2.8 10 Oeste 19 Oeste 0 -- -- 74
2019-11-10 08:00:00 2.4 7 Noroeste 25 Noroeste 0 -- -- 76
2019-11-10 07:00:00 2.3 8 Norte 28 Noroeste 0 -- -- 78
2019-11-10 06:00:00 1.9 8 Noroeste 27 Noroeste 0 -- -- 80
2019-11-10 05:00:00 2.2 17 Noroeste 31 Oeste 0 -- -- 78
2019-11-10 04:00:00 1.8 8 Noroeste 19 Noroeste 0 -- -- 83
2019-11-10 03:00:00 2 11 Noroeste 37 Noroeste 0 -- -- 83
2019-11-10 02:00:00 2.7 14 Noroeste 23 Noroeste 0 -- -- 86
2019-11-10 01:00:00 2.5 15 Noroeste 24 Noroeste 0 -- -- 88
2019-11-10 00:00:00 1.7 4 Norte 21 Noroeste 1.6 -- -- 94